sensor_id;sensor_type;location;lat;lon;timestamp;temperature;humidity
19044;DHT22;9654;52.302;8.120;2023-09-07T00:01:13;18.10;31.10
19044;DHT22;9654;52.302;8.120;2023-09-07T00:03:40;18.10;12.40
19044;DHT22;9654;52.302;8.120;2023-09-07T00:06:08;18.10;24.10
19044;DHT22;9654;52.302;8.120;2023-09-07T00:08:34;18.00;15.10
19044;DHT22;9654;52.302;8.120;2023-09-07T00:11:04;18.00;22.10
19044;DHT22;9654;52.302;8.120;2023-09-07T00:13:31;18.00;25.00
19044;DHT22;9654;52.302;8.120;2023-09-07T00:15:58;18.00;35.70
19044;DHT22;9654;52.302;8.120;2023-09-07T00:18:26;17.90;38.80
19044;DHT22;9654;52.302;8.120;2023-09-07T00:20:52;17.90;40.10
19044;DHT22;9654;52.302;8.120;2023-09-07T00:23:20;17.90;67.80
19044;DHT22;9654;52.302;8.120;2023-09-07T00:25:48;17.90;62.90
19044;DHT22;9654;52.302;8.120;2023-09-07T00:28:14;17.90;90.00
19044;DHT22;9654;52.302;8.120;2023-09-07T00:30:41;17.90;81.60
19044;DHT22;9654;52.302;8.120;2023-09-07T00:33:08;17.90;57.40
19044;DHT22;9654;52.302;8.120;2023-09-07T00:35:35;18.00;32.90
19044;DHT22;9654;52.302;8.120;2023-09-07T00:38:02;18.00;48.90
19044;DHT22;9654;52.302;8.120;2023-09-07T00:40:30;18.00;46.80
19044;DHT22;9654;52.302;8.120;2023-09-07T00:42:58;18.10;29.90
19044;DHT22;9654;52.302;8.120;2023-09-07T00:45:25;18.00;26.90
19044;DHT22;9654;52.302;8.120;2023-09-07T00:47:52;18.00;28.30
19044;DHT22;9654;52.302;8.120;2023-09-07T00:50:19;17.90;30.60
19044;DHT22;9654;52.302;8.120;2023-09-07T00:52:47;17.90;45.40
19044;DHT22;9654;52.302;8.120;2023-09-07T00:55:14;17.80;71.70
19044;DHT22;9654;52.302;8.120;2023-09-07T00:57:43;17.70;81.80
19044;DHT22;9654;52.302;8.120;2023-09-07T01:00:11;17.70;93.90
19044;DHT22;9654;52.302;8.120;2023-09-07T01:02:38;17.60;95.90
19044;DHT22;9654;52.302;8.120;2023-09-07T01:05:05;17.60;99.90
19044;DHT22;9654;52.302;8.120;2023-09-07T01:07:37;17.50;99.00
19044;DHT22;9654;52.302;8.120;2023-09-07T01:10:06;17.40;99.90
19044;DHT22;9654;52.302;8.120;2023-09-07T01:12:33;17.40;99.90
19044;DHT22;9654;52.302;8.120;2023-09-07T01:15:02;17.30;99.90
19044;DHT22;9654;52.302;8.120;2023-09-07T01:17:30;17.30;99.90
19044;DHT22;9654;52.302;8.120;2023-09-07T01:19:57;17.20;99.90
19044;DHT22;9654;52.302;8.120;2023-09-07T01:22:32;17.10;99.90
19044;DHT22;9654;52.302;8.120;2023-09-07T01:25:00;17.00;99.90
19044;DHT22;9654;52.302;8.120;2023-09-07T01:27:28;17.00;99.90
19044;DHT22;9654;52.302;8.120;2023-09-07T01:29:55;16.90;99.90
19044;DHT22;9654;52.302;8.120;2023-09-07T01:32:21;16.80;99.90
19044;DHT22;9654;52.302;8.120;2023-09-07T01:34:48;16.70;99.90
19044;DHT22;9654;52.302;8.120;2023-09-07T01:37:15;16.60;99.90
19044;DHT22;9654;52.302;8.120;2023-09-07T01:39:43;16.50;99.90
19044;DHT22;9654;52.302;8.120;2023-09-07T01:42:10;16.50;99.90
19044;DHT22;9654;52.302;8.120;2023-09-07T01:44:36;16.50;99.90
19044;DHT22;9654;52.302;8.120;2023-09-07T01:47:03;16.50;99.90
19044;DHT22;9654;52.302;8.120;2023-09-07T01:49:30;16.50;99.90
19044;DHT22;9654;52.302;8.120;2023-09-07T01:51:57;16.50;99.90
19044;DHT22;9654;52.302;8.120;2023-09-07T01:54:24;16.40;99.90
19044;DHT22;9654;52.302;8.120;2023-09-07T01:56:52;16.40;99.90
19044;DHT22;9654;52.302;8.120;2023-09-07T01:59:19;16.30;99.90
19044;DHT22;9654;52.302;8.120;2023-09-07T02:01:45;16.20;99.90
19044;DHT22;9654;52.302;8.120;2023-09-07T02:04:12;16.20;99.90
19044;DHT22;9654;52.302;8.120;2023-09-07T02:06:39;16.10;99.90
19044;DHT22;9654;52.302;8.120;2023-09-07T02:09:06;16.00;99.90
19044;DHT22;9654;52.302;8.120;2023-09-07T02:11:33;15.90;99.90
19044;DHT22;9654;52.302;8.120;2023-09-07T02:14:01;15.90;99.90
19044;DHT22;9654;52.302;8.120;2023-09-07T02:16:28;15.80;99.90
19044;DHT22;9654;52.302;8.120;2023-09-07T02:19:00;15.80;99.90
19044;DHT22;9654;52.302;8.120;2023-09-07T02:21:27;15.70;99.90
19044;DHT22;9654;52.302;8.120;2023-09-07T02:23:54;15.70;99.90
19044;DHT22;9654;52.302;8.120;2023-09-07T02:26:21;15.60;99.90
19044;DHT22;9654;52.302;8.120;2023-09-07T02:28:48;15.60;99.90
19044;DHT22;9654;52.302;8.120;2023-09-07T02:31:16;15.60;99.90
19044;DHT22;9654;52.302;8.120;2023-09-07T02:33:42;15.60;99.90
19044;DHT22;9654;52.302;8.120;2023-09-07T02:36:09;15.60;99.90
19044;DHT22;9654;52.302;8.120;2023-09-07T02:38:36;15.60;99.90
19044;DHT22;9654;52.302;8.120;2023-09-07T02:41:03;15.50;99.90
19044;DHT22;9654;52.302;8.120;2023-09-07T02:43:30;15.50;99.90
19044;DHT22;9654;52.302;8.120;2023-09-07T02:45:57;15.40;99.90
19044;DHT22;9654;52.302;8.120;2023-09-07T02:48:25;15.40;99.90
19044;DHT22;9654;52.302;8.120;2023-09-07T02:50:52;15.40;99.90
19044;DHT22;9654;52.302;8.120;2023-09-07T02:53:19;15.30;99.90
19044;DHT22;9654;52.302;8.120;2023-09-07T02:55:46;15.30;99.90
19044;DHT22;9654;52.302;8.120;2023-09-07T02:58:12;15.30;99.90
19044;DHT22;9654;52.302;8.120;2023-09-07T03:00:42;15.30;99.90
19044;DHT22;9654;52.302;8.120;2023-09-07T03:03:10;15.30;99.90
19044;DHT22;9654;52.302;8.120;2023-09-07T03:05:40;15.20;99.90
19044;DHT22;9654;52.302;8.120;2023-09-07T03:08:07;15.20;99.90
19044;DHT22;9654;52.302;8.120;2023-09-07T03:10:35;15.20;99.90
19044;DHT22;9654;52.302;8.120;2023-09-07T03:13:01;15.10;99.90
19044;DHT22;9654;52.302;8.120;2023-09-07T03:15:29;15.10;99.90
19044;DHT22;9654;52.302;8.120;2023-09-07T03:17:55;15.10;99.90
19044;DHT22;9654;52.302;8.120;2023-09-07T03:20:22;15.10;99.90
19044;DHT22;9654;52.302;8.120;2023-09-07T03:22:50;15.10;99.90
19044;DHT22;9654;52.302;8.120;2023-09-07T03:25:17;15.00;99.90
19044;DHT22;9654;52.302;8.120;2023-09-07T03:27:44;15.00;99.90
19044;DHT22;9654;52.302;8.120;2023-09-07T03:30:11;15.00;99.90
19044;DHT22;9654;52.302;8.120;2023-09-07T03:32:38;15.00;99.90
19044;DHT22;9654;52.302;8.120;2023-09-07T03:35:05;14.80;99.90
19044;DHT22;9654;52.302;8.120;2023-09-07T03:37:35;14.80;99.90
19044;DHT22;9654;52.302;8.120;2023-09-07T03:40:04;14.70;99.90
19044;DHT22;9654;52.302;8.120;2023-09-07T03:42:31;14.70;99.90
19044;DHT22;9654;52.302;8.120;2023-09-07T03:44:58;14.70;99.90
19044;DHT22;9654;52.302;8.120;2023-09-07T03:47:24;14.70;99.90
19044;DHT22;9654;52.302;8.120;2023-09-07T03:49:54;14.70;99.90
19044;DHT22;9654;52.302;8.120;2023-09-07T03:52:21;14.70;99.90
19044;DHT22;9654;52.302;8.120;2023-09-07T03:54:50;14.70;99.90
19044;DHT22;9654;52.302;8.120;2023-09-07T03:57:18;14.70;99.90
19044;DHT22;9654;52.302;8.120;2023-09-07T03:59:45;14.70;99.90
19044;DHT22;9654;52.302;8.120;2023-09-07T04:02:12;14.70;99.90
19044;DHT22;9654;52.302;8.120;2023-09-07T04:04:40;14.70;99.90
19044;DHT22;9654;52.302;8.120;2023-09-07T04:07:06;14.70;99.90
19044;DHT22;9654;52.302;8.120;2023-09-07T04:09:33;14.70;99.90
19044;DHT22;9654;52.302;8.120;2023-09-07T04:12:00;14.70;99.90
19044;DHT22;9654;52.302;8.120;2023-09-07T04:14:30;14.60;99.90
19044;DHT22;9654;52.302;8.120;2023-09-07T04:16:57;14.60;99.90
19044;DHT22;9654;52.302;8.120;2023-09-07T04:19:24;14.60;99.90
19044;DHT22;9654;52.302;8.120;2023-09-07T04:21:50;14.60;99.90
19044;DHT22;9654;52.302;8.120;2023-09-07T04:24:17;14.50;99.90
19044;DHT22;9654;52.302;8.120;2023-09-07T04:26:44;14.50;99.90
19044;DHT22;9654;52.302;8.120;2023-09-07T04:29:11;14.50;99.90
19044;DHT22;9654;52.302;8.120;2023-09-07T04:31:39;14.40;99.90
19044;DHT22;9654;52.302;8.120;2023-09-07T04:34:07;14.40;99.90
19044;DHT22;9654;52.302;8.120;2023-09-07T04:36:33;14.40;99.90
19044;DHT22;9654;52.302;8.120;2023-09-07T04:39:00;14.30;99.90
19044;DHT22;9654;52.302;8.120;2023-09-07T04:41:29;14.30;99.90
19044;DHT22;9654;52.302;8.120;2023-09-07T04:43:56;14.30;99.90
19044;DHT22;9654;52.302;8.120;2023-09-07T04:46:23;14.20;99.90
19044;DHT22;9654;52.302;8.120;2023-09-07T04:48:51;14.20;99.90
19044;DHT22;9654;52.302;8.120;2023-09-07T04:51:17;14.10;99.90
19044;DHT22;9654;52.302;8.120;2023-09-07T04:53:46;14.10;99.90
19044;DHT22;9654;52.302;8.120;2023-09-07T04:56:13;14.10;99.90
19044;DHT22;9654;52.302;8.120;2023-09-07T04:58:40;14.00;99.90
19044;DHT22;9654;52.302;8.120;2023-09-07T05:01:08;14.00;99.90
19044;DHT22;9654;52.302;8.120;2023-09-07T05:03:35;14.00;99.90
19044;DHT22;9654;52.302;8.120;2023-09-07T05:06:04;14.00;99.90
19044;DHT22;9654;52.302;8.120;2023-09-07T05:08:31;14.00;99.90
19044;DHT22;9654;52.302;8.120;2023-09-07T05:10:59;14.00;99.90
19044;DHT22;9654;52.302;8.120;2023-09-07T05:13:27;14.00;99.90
19044;DHT22;9654;52.302;8.120;2023-09-07T05:15:54;14.10;99.90
19044;DHT22;9654;52.302;8.120;2023-09-07T05:18:24;14.10;99.90
19044;DHT22;9654;52.302;8.120;2023-09-07T05:20:52;14.20;99.90
19044;DHT22;9654;52.302;8.120;2023-09-07T05:23:21;14.20;99.90
19044;DHT22;9654;52.302;8.120;2023-09-07T05:25:48;14.20;99.90
19044;DHT22;9654;52.302;8.120;2023-09-07T05:28:16;14.20;99.90
19044;DHT22;9654;52.302;8.120;2023-09-07T05:30:43;14.20;99.90
19044;DHT22;9654;52.302;8.120;2023-09-07T05:33:10;14.20;99.90
19044;DHT22;9654;52.302;8.120;2023-09-07T05:35:38;14.20;99.90
19044;DHT22;9654;52.302;8.120;2023-09-07T05:38:05;14.30;99.90
19044;DHT22;9654;52.302;8.120;2023-09-07T05:40:35;14.30;99.90
19044;DHT22;9654;52.302;8.120;2023-09-07T05:43:03;14.40;99.90
19044;DHT22;9654;52.302;8.120;2023-09-07T05:45:29;14.50;99.90
19044;DHT22;9654;52.302;8.120;2023-09-07T05:47:57;14.60;99.90
19044;DHT22;9654;52.302;8.120;2023-09-07T05:50:23;14.70;99.90
19044;DHT22;9654;52.302;8.120;2023-09-07T05:52:50;14.80;99.90
19044;DHT22;9654;52.302;8.120;2023-09-07T05:55:17;14.90;99.90
19044;DHT22;9654;52.302;8.120;2023-09-07T05:57:45;15.00;99.90
19044;DHT22;9654;52.302;8.120;2023-09-07T06:00:13;15.10;99.90
19044;DHT22;9654;52.302;8.120;2023-09-07T06:02:40;15.20;99.90
19044;DHT22;9654;52.302;8.120;2023-09-07T06:05:07;15.40;99.90
19044;DHT22;9654;52.302;8.120;2023-09-07T06:07:35;15.60;99.90
19044;DHT22;9654;52.302;8.120;2023-09-07T06:10:02;15.70;99.90
19044;DHT22;9654;52.302;8.120;2023-09-07T06:12:30;15.90;99.90
19044;DHT22;9654;52.302;8.120;2023-09-07T06:14:59;16.10;99.90
19044;DHT22;9654;52.302;8.120;2023-09-07T06:17:25;16.20;99.90
19044;DHT22;9654;52.302;8.120;2023-09-07T06:19:53;16.40;99.90
19044;DHT22;9654;52.302;8.120;2023-09-07T06:22:20;16.50;99.90
19044;DHT22;9654;52.302;8.120;2023-09-07T06:24:46;16.60;99.90
19044;DHT22;9654;52.302;8.120;2023-09-07T06:27:13;16.70;99.90
19044;DHT22;9654;52.302;8.120;2023-09-07T06:29:40;16.90;99.90
19044;DHT22;9654;52.302;8.120;2023-09-07T06:32:08;17.00;99.90
19044;DHT22;9654;52.302;8.120;2023-09-07T06:34:34;17.10;99.90
19044;DHT22;9654;52.302;8.120;2023-09-07T06:37:01;17.30;99.90
19044;DHT22;9654;52.302;8.120;2023-09-07T06:39:28;17.40;99.90
19044;DHT22;9654;52.302;8.120;2023-09-07T06:41:55;17.60;99.90
19044;DHT22;9654;52.302;8.120;2023-09-07T06:44:22;17.70;99.90
19044;DHT22;9654;52.302;8.120;2023-09-07T06:46:48;17.80;99.90
19044;DHT22;9654;52.302;8.120;2023-09-07T06:49:17;18.00;99.90
19044;DHT22;9654;52.302;8.120;2023-09-07T06:51:44;18.10;99.90
19044;DHT22;9654;52.302;8.120;2023-09-07T06:54:11;18.30;99.90
19044;DHT22;9654;52.302;8.120;2023-09-07T06:56:38;18.40;99.90
19044;DHT22;9654;52.302;8.120;2023-09-07T06:59:05;18.60;99.90
19044;DHT22;9654;52.302;8.120;2023-09-07T07:01:32;18.70;99.90
19044;DHT22;9654;52.302;8.120;2023-09-07T07:03:59;18.80;99.90
19044;DHT22;9654;52.302;8.120;2023-09-07T07:06:27;19.00;99.90
19044;DHT22;9654;52.302;8.120;2023-09-07T07:08:53;19.10;99.90
19044;DHT22;9654;52.302;8.120;2023-09-07T07:11:20;19.30;99.90
19044;DHT22;9654;52.302;8.120;2023-09-07T07:13:47;19.40;99.90
19044;DHT22;9654;52.302;8.120;2023-09-07T07:16:14;19.50;99.90
19044;DHT22;9654;52.302;8.120;2023-09-07T07:18:40;19.60;99.90
19044;DHT22;9654;52.302;8.120;2023-09-07T07:21:07;19.80;99.90
19044;DHT22;9654;52.302;8.120;2023-09-07T07:23:36;19.90;1.00
19044;DHT22;9654;52.302;8.120;2023-09-07T07:26:02;20.10;1.00
19044;DHT22;9654;52.302;8.120;2023-09-07T07:28:29;20.20;1.00
19044;DHT22;9654;52.302;8.120;2023-09-07T07:30:56;20.40;1.00
19044;DHT22;9654;52.302;8.120;2023-09-07T07:33:23;20.50;1.00
19044;DHT22;9654;52.302;8.120;2023-09-07T07:35:50;20.60;1.00
19044;DHT22;9654;52.302;8.120;2023-09-07T07:38:16;20.70;99.90
19044;DHT22;9654;52.302;8.120;2023-09-07T07:40:46;20.80;28.60
19044;DHT22;9654;52.302;8.120;2023-09-07T07:43:13;21.00;1.00
19044;DHT22;9654;52.302;8.120;2023-09-07T07:45:40;21.10;99.90
19044;DHT22;9654;52.302;8.120;2023-09-07T07:48:06;21.20;99.90
19044;DHT22;9654;52.302;8.120;2023-09-07T07:50:37;21.40;1.00
19044;DHT22;9654;52.302;8.120;2023-09-07T07:53:04;21.50;1.00
19044;DHT22;9654;52.302;8.120;2023-09-07T07:55:34;21.60;1.00
19044;DHT22;9654;52.302;8.120;2023-09-07T07:58:05;21.70;99.90
19044;DHT22;9654;52.302;8.120;2023-09-07T08:00:33;21.80;1.00
19044;DHT22;9654;52.302;8.120;2023-09-07T08:02:59;22.00;99.90
19044;DHT22;9654;52.302;8.120;2023-09-07T08:05:27;22.10;99.90
19044;DHT22;9654;52.302;8.120;2023-09-07T08:07:54;22.20;1.00
19044;DHT22;9654;52.302;8.120;2023-09-07T08:10:21;22.30;99.90
19044;DHT22;9654;52.302;8.120;2023-09-07T08:12:48;22.40;1.00
19044;DHT22;9654;52.302;8.120;2023-09-07T08:15:16;22.50;1.00
19044;DHT22;9654;52.302;8.120;2023-09-07T08:17:45;22.70;1.00
19044;DHT22;9654;52.302;8.120;2023-09-07T08:20:13;22.80;1.00
19044;DHT22;9654;52.302;8.120;2023-09-07T08:22:40;22.90;1.00
19044;DHT22;9654;52.302;8.120;2023-09-07T08:25:08;23.00;99.90
19044;DHT22;9654;52.302;8.120;2023-09-07T08:27:35;23.10;1.00
19044;DHT22;9654;52.302;8.120;2023-09-07T08:30:02;23.20;1.00
19044;DHT22;9654;52.302;8.120;2023-09-07T08:32:32;23.30;1.00
19044;DHT22;9654;52.302;8.120;2023-09-07T08:34:59;23.40;99.90
19044;DHT22;9654;52.302;8.120;2023-09-07T08:37:27;23.40;1.00
19044;DHT22;9654;52.302;8.120;2023-09-07T08:39:56;23.40;1.00
19044;DHT22;9654;52.302;8.120;2023-09-07T08:42:23;23.50;1.00
19044;DHT22;9654;52.302;8.120;2023-09-07T08:44:51;23.50;99.90
19044;DHT22;9654;52.302;8.120;2023-09-07T08:47:24;23.60;1.00
19044;DHT22;9654;52.302;8.120;2023-09-07T08:49:54;23.70;1.00
19044;DHT22;9654;52.302;8.120;2023-09-07T08:52:22;23.80;99.90
19044;DHT22;9654;52.302;8.120;2023-09-07T08:54:50;23.90;99.90
19044;DHT22;9654;52.302;8.120;2023-09-07T08:57:17;24.00;99.90
19044;DHT22;9654;52.302;8.120;2023-09-07T08:59:44;24.10;99.90
19044;DHT22;9654;52.302;8.120;2023-09-07T09:02:11;24.30;99.90
19044;DHT22;9654;52.302;8.120;2023-09-07T09:04:38;24.40;99.90
19044;DHT22;9654;52.302;8.120;2023-09-07T09:07:07;24.40;55.40
19044;DHT22;9654;52.302;8.120;2023-09-07T09:09:34;24.50;16.30
19044;DHT22;9654;52.302;8.120;2023-09-07T09:12:08;24.50;1.00
19044;DHT22;9654;52.302;8.120;2023-09-07T09:14:35;24.60;1.00
19044;DHT22;9654;52.302;8.120;2023-09-07T09:17:02;24.70;1.00
19044;DHT22;9654;52.302;8.120;2023-09-07T09:19:32;24.90;1.00
19044;DHT22;9654;52.302;8.120;2023-09-07T09:21:59;25.00;1.00
19044;DHT22;9654;52.302;8.120;2023-09-07T09:24:31;25.10;1.00
19044;DHT22;9654;52.302;8.120;2023-09-07T09:26:58;25.20;1.00
19044;DHT22;9654;52.302;8.120;2023-09-07T09:29:25;25.30;1.00
19044;DHT22;9654;52.302;8.120;2023-09-07T09:31:53;25.40;1.00
19044;DHT22;9654;52.302;8.120;2023-09-07T09:34:20;25.50;1.00
19044;DHT22;9654;52.302;8.120;2023-09-07T09:36:47;25.70;1.00
19044;DHT22;9654;52.302;8.120;2023-09-07T09:39:22;25.80;1.00
19044;DHT22;9654;52.302;8.120;2023-09-07T09:41:51;25.90;1.00
19044;DHT22;9654;52.302;8.120;2023-09-07T09:44:21;26.00;1.00
19044;DHT22;9654;52.302;8.120;2023-09-07T09:46:51;26.00;1.00
19044;DHT22;9654;52.302;8.120;2023-09-07T09:49:20;26.20;1.00
19044;DHT22;9654;52.302;8.120;2023-09-07T09:51:48;26.20;99.90
19044;DHT22;9654;52.302;8.120;2023-09-07T09:54:16;26.30;99.90
19044;DHT22;9654;52.302;8.120;2023-09-07T09:56:43;26.50;99.90
19044;DHT22;9654;52.302;8.120;2023-09-07T09:59:12;26.60;99.90
19044;DHT22;9654;52.302;8.120;2023-09-07T10:01:43;26.70;99.90
19044;DHT22;9654;52.302;8.120;2023-09-07T10:04:12;26.80;99.90
19044;DHT22;9654;52.302;8.120;2023-09-07T10:06:49;26.90;99.90
19044;DHT22;9654;52.302;8.120;2023-09-07T10:09:16;27.00;99.90
19044;DHT22;9654;52.302;8.120;2023-09-07T10:11:51;27.00;99.90
19044;DHT22;9654;52.302;8.120;2023-09-07T10:14:20;27.20;99.90
19044;DHT22;9654;52.302;8.120;2023-09-07T10:16:48;27.40;99.90
19044;DHT22;9654;52.302;8.120;2023-09-07T10:19:16;27.50;99.90
19044;DHT22;9654;52.302;8.120;2023-09-07T10:21:43;27.70;99.90
19044;DHT22;9654;52.302;8.120;2023-09-07T10:24:10;27.70;93.90
19044;DHT22;9654;52.302;8.120;2023-09-07T10:26:37;27.90;72.60
19044;DHT22;9654;52.302;8.120;2023-09-07T10:29:04;27.80;29.30
19044;DHT22;9654;52.302;8.120;2023-09-07T10:31:32;27.70;1.00
19044;DHT22;9654;52.302;8.120;2023-09-07T10:34:08;27.70;1.00
19044;DHT22;9654;52.302;8.120;2023-09-07T10:36:37;27.80;1.00
19044;DHT22;9654;52.302;8.120;2023-09-07T10:39:04;27.90;1.00
19044;DHT22;9654;52.302;8.120;2023-09-07T10:41:40;28.00;1.00
19044;DHT22;9654;52.302;8.120;2023-09-07T10:44:07;28.20;1.00
19044;DHT22;9654;52.302;8.120;2023-09-07T10:46:37;28.20;1.00
19044;DHT22;9654;52.302;8.120;2023-09-07T10:49:07;28.30;1.00
19044;DHT22;9654;52.302;8.120;2023-09-07T10:51:41;28.40;1.00
19044;DHT22;9654;52.302;8.120;2023-09-07T10:54:14;28.30;1.00
19044;DHT22;9654;52.302;8.120;2023-09-07T10:56:42;28.30;1.00
19044;DHT22;9654;52.302;8.120;2023-09-07T10:59:09;28.40;1.00
19044;DHT22;9654;52.302;8.120;2023-09-07T11:01:37;28.50;1.00
19044;DHT22;9654;52.302;8.120;2023-09-07T11:04:04;28.50;1.00
19044;DHT22;9654;52.302;8.120;2023-09-07T11:06:34;28.70;1.00
19044;DHT22;9654;52.302;8.120;2023-09-07T11:09:02;28.70;1.00
19044;DHT22;9654;52.302;8.120;2023-09-07T11:11:31;28.70;1.00
19044;DHT22;9654;52.302;8.120;2023-09-07T11:13:59;28.80;1.00
19044;DHT22;9654;52.302;8.120;2023-09-07T11:16:26;28.80;1.00
19044;DHT22;9654;52.302;8.120;2023-09-07T11:18:54;29.00;1.00
19044;DHT22;9654;52.302;8.120;2023-09-07T11:21:21;29.10;1.00
19044;DHT22;9654;52.302;8.120;2023-09-07T11:23:50;29.30;1.00
19044;DHT22;9654;52.302;8.120;2023-09-07T11:26:17;29.40;1.00
19044;DHT22;9654;52.302;8.120;2023-09-07T11:28:46;29.50;1.00
19044;DHT22;9654;52.302;8.120;2023-09-07T11:31:13;29.60;1.00
19044;DHT22;9654;52.302;8.120;2023-09-07T11:33:41;29.50;1.00
19044;DHT22;9654;52.302;8.120;2023-09-07T11:36:09;29.40;1.00
19044;DHT22;9654;52.302;8.120;2023-09-07T11:38:37;29.30;1.00
19044;DHT22;9654;52.302;8.120;2023-09-07T11:41:04;29.20;1.00
19044;DHT22;9654;52.302;8.120;2023-09-07T11:43:31;29.20;1.00
19044;DHT22;9654;52.302;8.120;2023-09-07T11:45:59;29.30;1.00
19044;DHT22;9654;52.302;8.120;2023-09-07T11:48:26;29.40;1.00
19044;DHT22;9654;52.302;8.120;2023-09-07T11:50:54;29.60;1.00
19044;DHT22;9654;52.302;8.120;2023-09-07T11:53:22;29.70;1.00
19044;DHT22;9654;52.302;8.120;2023-09-07T11:55:49;29.80;1.00
19044;DHT22;9654;52.302;8.120;2023-09-07T11:58:15;29.90;1.00
19044;DHT22;9654;52.302;8.120;2023-09-07T12:00:42;30.20;1.00
19044;DHT22;9654;52.302;8.120;2023-09-07T12:03:09;30.30;1.00
19044;DHT22;9654;52.302;8.120;2023-09-07T12:05:36;30.50;1.00
19044;DHT22;9654;52.302;8.120;2023-09-07T12:08:05;30.70;1.00
19044;DHT22;9654;52.302;8.120;2023-09-07T12:10:33;30.70;1.00
19044;DHT22;9654;52.302;8.120;2023-09-07T12:13:00;30.70;1.00
19044;DHT22;9654;52.302;8.120;2023-09-07T12:15:27;30.60;1.00
19044;DHT22;9654;52.302;8.120;2023-09-07T12:17:54;30.60;1.00
19044;DHT22;9654;52.302;8.120;2023-09-07T12:20:21;30.70;1.00
19044;DHT22;9654;52.302;8.120;2023-09-07T12:22:48;30.80;1.00
19044;DHT22;9654;52.302;8.120;2023-09-07T12:25:15;30.90;1.00
19044;DHT22;9654;52.302;8.120;2023-09-07T12:27:43;30.90;1.00
19044;DHT22;9654;52.302;8.120;2023-09-07T12:30:12;30.90;1.00
19044;DHT22;9654;52.302;8.120;2023-09-07T12:32:39;31.00;1.00
19044;DHT22;9654;52.302;8.120;2023-09-07T12:35:07;31.00;1.00
19044;DHT22;9654;52.302;8.120;2023-09-07T12:37:34;31.10;1.00
19044;DHT22;9654;52.302;8.120;2023-09-07T12:40:02;31.10;1.00
19044;DHT22;9654;52.302;8.120;2023-09-07T12:42:31;31.10;1.00
19044;DHT22;9654;52.302;8.120;2023-09-07T12:44:59;31.30;1.00
19044;DHT22;9654;52.302;8.120;2023-09-07T12:47:26;31.40;1.00
19044;DHT22;9654;52.302;8.120;2023-09-07T12:49:53;31.30;1.00
19044;DHT22;9654;52.302;8.120;2023-09-07T12:52:19;31.30;1.00
19044;DHT22;9654;52.302;8.120;2023-09-07T12:54:46;31.20;1.00
19044;DHT22;9654;52.302;8.120;2023-09-07T12:57:13;31.20;1.00
19044;DHT22;9654;52.302;8.120;2023-09-07T12:59:40;31.20;1.00
19044;DHT22;9654;52.302;8.120;2023-09-07T13:02:08;31.30;1.00
19044;DHT22;9654;52.302;8.120;2023-09-07T13:04:34;31.40;1.00
19044;DHT22;9654;52.302;8.120;2023-09-07T13:07:01;31.50;1.00
19044;DHT22;9654;52.302;8.120;2023-09-07T13:09:28;31.60;1.00
19044;DHT22;9654;52.302;8.120;2023-09-07T13:11:55;31.60;1.00
19044;DHT22;9654;52.302;8.120;2023-09-07T13:14:21;31.50;1.00
19044;DHT22;9654;52.302;8.120;2023-09-07T13:16:48;31.60;1.00
19044;DHT22;9654;52.302;8.120;2023-09-07T13:19:17;31.50;1.00
19044;DHT22;9654;52.302;8.120;2023-09-07T13:21:44;31.20;1.00
19044;DHT22;9654;52.302;8.120;2023-09-07T13:24:11;31.30;1.00
19044;DHT22;9654;52.302;8.120;2023-09-07T13:26:39;31.30;1.00
19044;DHT22;9654;52.302;8.120;2023-09-07T13:29:06;31.30;1.00
19044;DHT22;9654;52.302;8.120;2023-09-07T13:31:33;31.20;1.00
19044;DHT22;9654;52.302;8.120;2023-09-07T13:33:59;31.10;1.00
19044;DHT22;9654;52.302;8.120;2023-09-07T13:36:27;31.20;1.00
19044;DHT22;9654;52.302;8.120;2023-09-07T13:38:54;31.30;1.00
19044;DHT22;9654;52.302;8.120;2023-09-07T13:41:22;31.40;1.00
19044;DHT22;9654;52.302;8.120;2023-09-07T13:43:49;31.50;1.00
19044;DHT22;9654;52.302;8.120;2023-09-07T13:46:15;31.40;1.00
19044;DHT22;9654;52.302;8.120;2023-09-07T13:48:42;31.40;1.00
19044;DHT22;9654;52.302;8.120;2023-09-07T13:51:09;31.50;1.00
19044;DHT22;9654;52.302;8.120;2023-09-07T13:53:37;31.10;1.00
19044;DHT22;9654;52.302;8.120;2023-09-07T13:56:04;31.00;1.00
19044;DHT22;9654;52.302;8.120;2023-09-07T13:58:30;31.00;1.00
19044;DHT22;9654;52.302;8.120;2023-09-07T14:00:57;31.30;1.00
19044;DHT22;9654;52.302;8.120;2023-09-07T14:03:24;31.40;1.00
19044;DHT22;9654;52.302;8.120;2023-09-07T14:05:52;31.40;1.00
19044;DHT22;9654;52.302;8.120;2023-09-07T14:08:19;31.30;1.00
19044;DHT22;9654;52.302;8.120;2023-09-07T14:10:50;31.50;1.00
19044;DHT22;9654;52.302;8.120;2023-09-07T14:13:18;31.50;1.00
19044;DHT22;9654;52.302;8.120;2023-09-07T14:15:45;31.60;1.00
19044;DHT22;9654;52.302;8.120;2023-09-07T14:18:12;31.50;1.00
19044;DHT22;9654;52.302;8.120;2023-09-07T14:20:39;31.50;1.00
19044;DHT22;9654;52.302;8.120;2023-09-07T14:23:05;31.60;1.00
19044;DHT22;9654;52.302;8.120;2023-09-07T14:25:32;31.70;1.00
19044;DHT22;9654;52.302;8.120;2023-09-07T14:28:00;31.70;1.00
19044;DHT22;9654;52.302;8.120;2023-09-07T14:30:27;31.70;1.00
19044;DHT22;9654;52.302;8.120;2023-09-07T14:32:54;31.80;1.00
19044;DHT22;9654;52.302;8.120;2023-09-07T14:35:20;31.80;1.00
19044;DHT22;9654;52.302;8.120;2023-09-07T14:37:47;31.70;1.00
19044;DHT22;9654;52.302;8.120;2023-09-07T14:40:14;31.70;1.00
19044;DHT22;9654;52.302;8.120;2023-09-07T14:42:40;31.70;1.00
19044;DHT22;9654;52.302;8.120;2023-09-07T14:45:10;31.80;1.00
19044;DHT22;9654;52.302;8.120;2023-09-07T14:47:36;31.80;1.00
19044;DHT22;9654;52.302;8.120;2023-09-07T14:50:04;31.90;1.00
19044;DHT22;9654;52.302;8.120;2023-09-07T14:52:30;31.90;1.00
19044;DHT22;9654;52.302;8.120;2023-09-07T14:55:02;31.90;1.00
19044;DHT22;9654;52.302;8.120;2023-09-07T14:57:29;31.80;1.00
19044;DHT22;9654;52.302;8.120;2023-09-07T14:59:56;31.70;1.00
19044;DHT22;9654;52.302;8.120;2023-09-07T15:02:24;31.50;1.00
19044;DHT22;9654;52.302;8.120;2023-09-07T15:04:51;31.50;1.00
19044;DHT22;9654;52.302;8.120;2023-09-07T15:07:18;31.60;1.00
19044;DHT22;9654;52.302;8.120;2023-09-07T15:09:45;31.60;1.00
19044;DHT22;9654;52.302;8.120;2023-09-07T15:12:12;31.60;1.00
19044;DHT22;9654;52.302;8.120;2023-09-07T15:14:39;31.40;1.00
19044;DHT22;9654;52.302;8.120;2023-09-07T15:17:05;31.30;1.00
19044;DHT22;9654;52.302;8.120;2023-09-07T15:19:34;31.20;1.00
19044;DHT22;9654;52.302;8.120;2023-09-07T15:22:01;31.00;1.00
19044;DHT22;9654;52.302;8.120;2023-09-07T15:24:27;30.90;1.00
19044;DHT22;9654;52.302;8.120;2023-09-07T15:26:54;30.90;1.00
19044;DHT22;9654;52.302;8.120;2023-09-07T15:29:21;30.90;1.00
19044;DHT22;9654;52.302;8.120;2023-09-07T15:31:48;30.80;1.00
19044;DHT22;9654;52.302;8.120;2023-09-07T15:34:15;30.80;1.00
19044;DHT22;9654;52.302;8.120;2023-09-07T15:36:43;31.00;1.00
19044;DHT22;9654;52.302;8.120;2023-09-07T15:39:10;30.80;1.00
19044;DHT22;9654;52.302;8.120;2023-09-07T15:41:37;30.80;1.00
19044;DHT22;9654;52.302;8.120;2023-09-07T15:44:04;30.70;1.00
19044;DHT22;9654;52.302;8.120;2023-09-07T15:46:31;30.60;1.00
19044;DHT22;9654;52.302;8.120;2023-09-07T15:48:57;30.50;1.00
19044;DHT22;9654;52.302;8.120;2023-09-07T15:51:24;30.40;1.00
19044;DHT22;9654;52.302;8.120;2023-09-07T15:53:52;30.20;1.00